Terminal Aerodrome Forecast
Issued by NWS

Current Version | Previous Version | Graphics & Text | Print | Product List | Glossary On
Versions: 1 2 3 4 5 6 7 8 9 10 11 12 13 14 15 16 17 18 19 20 21 22
685
FTUS41 KPBZ 101738
TAFHLG
TAF
KHLG 101738Z 1018/1118 24010G20KT 2SM -SHSN OVC020
     FM102000 25012G20KT 3SM -SHSN OVC020
     FM102300 26010G20KT 1SM -SHSN OVC012
     FM110300 27010G15KT 3SM -SHSN OVC012
     FM111200 28010G20KT 6SM -SHSN OVC025=

USA.gov is the U.S. government's official web portal to all federal, state and local government web resources and services.